Viking Amber — 9V7985 — position and weather

sailwx.info

Track history (hours):
 
Tides and Currents Weather Stations Pressure Air Temp Water Temp Dewpoint Dewpoint Depression Visibility Wind Speed Wind Dir Waves Ship Positions

Viking Amber

Last reported at 2014-Aug-17 10:15 UTC. Time now 2014-Aug-22 08:00 UTC.
Position N 01°16' E 104°11'.

Length 167 m; draft 7.2 m.

Type: Other ship. MMSI: 563255000.

Date/timePositionNaut miles runAvg speedWind from/ knotsBaromVisibWave heightAir tempDewpointWater temp
2014-Aug-17 10:15N 01°16' E 104°11'1115.8
2014-Aug-17 09:34N 01°14' E 103°60'  
2014-Aug-15 04:15N 01°15' E 103°49'0 0.0
2014-Aug-14 17:14N 01°15' E 103°49'4 0.4
2014-Aug-14 06:09N 01°17' E 103°45'0 0.0
2014-Aug-14 04:24N 01°17' E 103°45'0 0.1
2014-Aug-14 03:31N 01°17' E 103°45'8 6.7
2014-Aug-14 02:19N 01°13' E 103°52'5 6.9
2014-Aug-14 01:33N 01°15' E 103°57'1010.1
2014-Aug-14 00:33N 01°16' E 104°07'  
Track history (hours):
 
Tides and Currents Weather Stations Pressure Air Temp Water Temp Dewpoint Dewpoint Depression Visibility Wind Speed Wind Dir Waves Ship Positions

Viking Amber

Last reported at 2014-Aug-17 10:15 UTC. Time now 2014-Aug-22 08:00 UTC.
Position N 01°16' E 104°11'.

Length 167 m; draft 7.2 m.

Type: Other ship. MMSI: 563255000.

Date/timePositionNaut miles runAvg speedWind from/ knotsBaromVisibWave heightAir tempDewpointWater temp
2014-Aug-17 10:15N 01°16' E 104°11'1115.8
2014-Aug-17 09:34N 01°14' E 103°60'  
2014-Aug-15 04:15N 01°15' E 103°49'0 0.0
2014-Aug-14 17:14N 01°15' E 103°49'4 0.4
2014-Aug-14 06:09N 01°17' E 103°45'0 0.0
2014-Aug-14 04:24N 01°17' E 103°45'0 0.1
2014-Aug-14 03:31N 01°17' E 103°45'8 6.7
2014-Aug-14 02:19N 01°13' E 103°52'5 6.9
2014-Aug-14 01:33N 01°15' E 103°57'1010.1
2014-Aug-14 00:33N 01°16' E 104°07'  

Dump ship's entire track history